Terminal Aerodrome Forecast
Issued by NWS

Home | Current Version | Previous Version | Text Only | Print | Product List | Glossary On
Versions: 1 2 3 4 5 6 7 8 9 10 11 12 13 14 15 16
000
FTUS46 KSEW 182300
TAFHQM
TAF
KHQM 182330Z 1900/1924 07011KT 2SM -RA BR SCT014 BKN022 OVC045
     FM190300 09012KT 4SM RA BR OVC020 WS020/20050KT
     FM190600 20015G25KT 6SM -SHRA BKN020 OVC035
     FM191400 18010KT P6SM VCSH SCT020 BKN035=

USA.gov is the U.S. government's official web portal to all federal, state and local government web resources and services.